sensor_id;sensor_type;location;lat;lon;timestamp;pressure;altitude;pressure_sealevel;temperature
70533;BMP180;58088;51.186;17.130;2022-12-29T00:00:52;99973.20;;;9.60
70533;BMP180;58088;51.186;17.130;2022-12-29T00:03:18;99971.80;;;9.52
70533;BMP180;58088;51.186;17.130;2022-12-29T00:05:44;99980.80;;;9.50
70533;BMP180;58088;51.186;17.130;2022-12-29T00:08:10;99980.20;;;9.50
70533;BMP180;58088;51.186;17.130;2022-12-29T00:10:36;99986.40;;;9.50
70533;BMP180;58088;51.186;17.130;2022-12-29T00:13:03;99980.20;;;9.48
70533;BMP180;58088;51.186;17.130;2022-12-29T00:16:07;99979.40;;;9.44
70533;BMP180;58088;51.186;17.130;2022-12-29T00:18:33;99966.60;;;9.44
70533;BMP180;58088;51.186;17.130;2022-12-29T00:20:59;99965.60;;;9.40
70533;BMP180;58088;51.186;17.130;2022-12-29T00:23:44;99965.40;;;9.40
70533;BMP180;58088;51.186;17.130;2022-12-29T00:26:29;99967.00;;;9.40
70533;BMP180;58088;51.186;17.130;2022-12-29T00:29:14;99959.40;;;9.40
70533;BMP180;58088;51.186;17.130;2022-12-29T00:32:18;99960.20;;;9.40
70533;BMP180;58088;51.186;17.130;2022-12-29T00:35:06;99966.00;;;9.40
70533;BMP180;58088;51.186;17.130;2022-12-29T00:37:42;99952.40;;;9.40
70533;BMP180;58088;51.186;17.130;2022-12-29T00:40:28;99948.80;;;9.40
70533;BMP180;58088;51.186;17.130;2022-12-29T00:43:14;99944.60;;;9.36
70533;BMP180;58088;51.186;17.130;2022-12-29T00:45:58;99941.00;;;9.30
70533;BMP180;58088;51.186;17.130;2022-12-29T00:48:24;99933.20;;;9.32
70533;BMP180;58088;51.186;17.130;2022-12-29T00:51:11;99935.00;;;9.30
70533;BMP180;58088;51.186;17.130;2022-12-29T00:53:37;99932.60;;;9.30
70533;BMP180;58088;51.186;17.130;2022-12-29T00:56:04;99923.40;;;9.32
70533;BMP180;58088;51.186;17.130;2022-12-29T00:58:30;99921.40;;;9.38
70533;BMP180;58088;51.186;17.130;2022-12-29T01:01:06;99921.40;;;9.40
70533;BMP180;58088;51.186;17.130;2022-12-29T01:03:35;99919.40;;;9.40
70533;BMP180;58088;51.186;17.130;2022-12-29T01:06:03;99916.60;;;9.44
70533;BMP180;58088;51.186;17.130;2022-12-29T01:08:30;99919.20;;;9.40
70533;BMP180;58088;51.186;17.130;2022-12-29T01:11:08;99912.20;;;9.50
70533;BMP180;58088;51.186;17.130;2022-12-29T01:13:35;99911.00;;;9.50
70533;BMP180;58088;51.186;17.130;2022-12-29T01:16:06;99903.40;;;9.50
70533;BMP180;58088;51.186;17.130;2022-12-29T01:18:33;99907.00;;;9.50
70533;BMP180;58088;51.186;17.130;2022-12-29T01:21:03;99909.60;;;9.60
70533;BMP180;58088;51.186;17.130;2022-12-29T01:23:30;99909.20;;;9.60
70533;BMP180;58088;51.186;17.130;2022-12-29T01:25:56;99913.60;;;9.60
70533;BMP180;58088;51.186;17.130;2022-12-29T01:28:24;99907.00;;;9.60
70533;BMP180;58088;51.186;17.130;2022-12-29T01:30:50;99915.40;;;9.60
70533;BMP180;58088;51.186;17.130;2022-12-29T01:33:16;99898.00;;;9.60
70533;BMP180;58088;51.186;17.130;2022-12-29T01:35:42;99892.20;;;9.60
70533;BMP180;58088;51.186;17.130;2022-12-29T01:38:08;99898.00;;;9.60
70533;BMP180;58088;51.186;17.130;2022-12-29T01:40:44;99890.40;;;9.60
70533;BMP180;58088;51.186;17.130;2022-12-29T01:43:13;99897.80;;;9.60
70533;BMP180;58088;51.186;17.130;2022-12-29T01:45:58;99896.60;;;9.60
70533;BMP180;58088;51.186;17.130;2022-12-29T01:48:24;99890.60;;;9.60
70533;BMP180;58088;51.186;17.130;2022-12-29T01:50:53;99894.60;;;9.60
70533;BMP180;58088;51.186;17.130;2022-12-29T01:53:29;99896.00;;;9.60
70533;BMP180;58088;51.186;17.130;2022-12-29T01:56:04;99890.40;;;9.58
70533;BMP180;58088;51.186;17.130;2022-12-29T01:58:37;99890.20;;;9.54
70533;BMP180;58088;51.186;17.130;2022-12-29T02:01:06;99885.40;;;9.50
70533;BMP180;58088;51.186;17.130;2022-12-29T02:03:36;99878.80;;;9.50
70533;BMP180;58088;51.186;17.130;2022-12-29T02:06:11;99877.20;;;9.50
70533;BMP180;58088;51.186;17.130;2022-12-29T02:08:40;99874.40;;;9.48
70533;BMP180;58088;51.186;17.130;2022-12-29T02:11:07;99864.80;;;9.46
70533;BMP180;58088;51.186;17.130;2022-12-29T02:13:34;99860.20;;;9.40
70533;BMP180;58088;51.186;17.130;2022-12-29T02:17:10;99857.40;;;9.40
70533;BMP180;58088;51.186;17.130;2022-12-29T02:20:25;99856.40;;;9.40
70533;BMP180;58088;51.186;17.130;2022-12-29T02:23:36;99854.60;;;9.40
70533;BMP180;58088;51.186;17.130;2022-12-29T02:26:29;99857.80;;;9.42
70533;BMP180;58088;51.186;17.130;2022-12-29T02:29:19;99851.40;;;9.40
70533;BMP180;58088;51.186;17.130;2022-12-29T02:31:59;99850.80;;;9.40
70533;BMP180;58088;51.186;17.130;2022-12-29T02:40:36;99839.80;;;9.30
70533;BMP180;58088;51.186;17.130;2022-12-29T02:48:38;99835.20;;;9.38
70533;BMP180;58088;51.186;17.130;2022-12-29T02:51:18;99832.40;;;9.40
70533;BMP180;58088;51.186;17.130;2022-12-29T02:53:47;99830.40;;;9.30
70533;BMP180;58088;51.186;17.130;2022-12-29T02:56:32;99817.60;;;9.30
70533;BMP180;58088;51.186;17.130;2022-12-29T02:58:59;99822.80;;;9.30
70533;BMP180;58088;51.186;17.130;2022-12-29T03:02:19;99825.60;;;9.20
70533;BMP180;58088;51.186;17.130;2022-12-29T03:08:44;99819.40;;;9.10
70533;BMP180;58088;51.186;17.130;2022-12-29T03:11:15;99815.80;;;9.04
70533;BMP180;58088;51.186;17.130;2022-12-29T03:14:14;99820.80;;;9.06
70533;BMP180;58088;51.186;17.130;2022-12-29T03:17:11;99815.20;;;9.10
70533;BMP180;58088;51.186;17.130;2022-12-29T03:19:47;99824.40;;;9.08
70533;BMP180;58088;51.186;17.130;2022-12-29T03:22:25;99817.40;;;9.10
70533;BMP180;58088;51.186;17.130;2022-12-29T03:25:13;99804.00;;;9.08
70533;BMP180;58088;51.186;17.130;2022-12-29T03:27:49;99809.60;;;9.10
70533;BMP180;58088;51.186;17.130;2022-12-29T03:30:18;99808.40;;;9.10
70533;BMP180;58088;51.186;17.130;2022-12-29T03:32:55;99807.00;;;9.10
70533;BMP180;58088;51.186;17.130;2022-12-29T03:35:29;99812.60;;;9.10
70533;BMP180;58088;51.186;17.130;2022-12-29T03:38:37;99823.40;;;9.10
70533;BMP180;58088;51.186;17.130;2022-12-29T03:41:10;99824.20;;;9.14
70533;BMP180;58088;51.186;17.130;2022-12-29T03:43:37;99830.00;;;9.12
70533;BMP180;58088;51.186;17.130;2022-12-29T03:46:03;99820.60;;;9.20
70533;BMP180;58088;51.186;17.130;2022-12-29T03:48:30;99805.00;;;9.10
70533;BMP180;58088;51.186;17.130;2022-12-29T03:50:56;99802.20;;;9.20
70533;BMP180;58088;51.186;17.130;2022-12-29T03:53:22;99802.00;;;9.20
70533;BMP180;58088;51.186;17.130;2022-12-29T03:55:49;99806.80;;;9.20
70533;BMP180;58088;51.186;17.130;2022-12-29T03:58:15;99808.40;;;9.20
70533;BMP180;58088;51.186;17.130;2022-12-29T04:01:05;99807.40;;;9.22
70533;BMP180;58088;51.186;17.130;2022-12-29T04:03:32;99802.40;;;9.28
70533;BMP180;58088;51.186;17.130;2022-12-29T04:05:58;99812.00;;;9.30
70533;BMP180;58088;51.186;17.130;2022-12-29T04:08:24;99816.20;;;9.30
70533;BMP180;58088;51.186;17.130;2022-12-29T04:10:51;99804.20;;;9.20
70533;BMP180;58088;51.186;17.130;2022-12-29T04:13:19;99804.40;;;9.20
70533;BMP180;58088;51.186;17.130;2022-12-29T04:15:45;99801.00;;;9.20
70533;BMP180;58088;51.186;17.130;2022-12-29T04:18:12;99790.40;;;9.20
70533;BMP180;58088;51.186;17.130;2022-12-29T04:20:38;99774.00;;;9.10
70533;BMP180;58088;51.186;17.130;2022-12-29T04:23:24;99781.00;;;9.10
70533;BMP180;58088;51.186;17.130;2022-12-29T04:25:50;99779.00;;;9.10
70533;BMP180;58088;51.186;17.130;2022-12-29T04:28:17;99766.00;;;9.10
70533;BMP180;58088;51.186;17.130;2022-12-29T04:30:53;99766.60;;;9.10
70533;BMP180;58088;51.186;17.130;2022-12-29T04:33:25;99765.00;;;9.10
70533;BMP180;58088;51.186;17.130;2022-12-29T04:35:53;99760.00;;;9.10
70533;BMP180;58088;51.186;17.130;2022-12-29T04:38:22;99760.80;;;9.10
70533;BMP180;58088;51.186;17.130;2022-12-29T04:40:49;99756.40;;;9.10
70533;BMP180;58088;51.186;17.130;2022-12-29T04:43:18;99759.20;;;9.10
70533;BMP180;58088;51.186;17.130;2022-12-29T04:46:13;99758.40;;;9.20
70533;BMP180;58088;51.186;17.130;2022-12-29T04:48:48;99759.80;;;9.20
70533;BMP180;58088;51.186;17.130;2022-12-29T04:51:33;99761.80;;;9.20
70533;BMP180;58088;51.186;17.130;2022-12-29T04:53:59;99761.80;;;9.20
70533;BMP180;58088;51.186;17.130;2022-12-29T04:56:30;99762.60;;;9.20
70533;BMP180;58088;51.186;17.130;2022-12-29T04:58:57;99766.80;;;9.20
70533;BMP180;58088;51.186;17.130;2022-12-29T05:01:23;99763.20;;;9.30
70533;BMP180;58088;51.186;17.130;2022-12-29T05:03:50;99767.80;;;9.30
70533;BMP180;58088;51.186;17.130;2022-12-29T05:06:18;99767.20;;;9.30
70533;BMP180;58088;51.186;17.130;2022-12-29T05:08:44;99764.00;;;9.30
70533;BMP180;58088;51.186;17.130;2022-12-29T05:11:10;99766.80;;;9.30
70533;BMP180;58088;51.186;17.130;2022-12-29T05:13:36;99763.00;;;9.36
70533;BMP180;58088;51.186;17.130;2022-12-29T05:16:03;99757.60;;;9.40
70533;BMP180;58088;51.186;17.130;2022-12-29T05:18:29;99754.40;;;9.40
70533;BMP180;58088;51.186;17.130;2022-12-29T05:20:57;99752.20;;;9.40
70533;BMP180;58088;51.186;17.130;2022-12-29T05:23:24;99743.00;;;9.40
70533;BMP180;58088;51.186;17.130;2022-12-29T05:25:58;99742.80;;;9.40
70533;BMP180;58088;51.186;17.130;2022-12-29T05:28:47;99739.00;;;9.40
70533;BMP180;58088;51.186;17.130;2022-12-29T05:31:17;99731.00;;;9.40
70533;BMP180;58088;51.186;17.130;2022-12-29T05:33:43;99731.40;;;9.40
70533;BMP180;58088;51.186;17.130;2022-12-29T05:36:11;99729.80;;;9.46
70533;BMP180;58088;51.186;17.130;2022-12-29T05:38:42;99722.80;;;9.50
70533;BMP180;58088;51.186;17.130;2022-12-29T05:41:08;99724.60;;;9.50
70533;BMP180;58088;51.186;17.130;2022-12-29T05:43:55;99717.00;;;9.50
70533;BMP180;58088;51.186;17.130;2022-12-29T05:46:47;99715.60;;;9.54
70533;BMP180;58088;51.186;17.130;2022-12-29T05:49:30;99712.00;;;9.54
70533;BMP180;58088;51.186;17.130;2022-12-29T05:52:08;99700.00;;;9.58
70533;BMP180;58088;51.186;17.130;2022-12-29T05:54:34;99702.80;;;9.60
70533;BMP180;58088;51.186;17.130;2022-12-29T05:57:02;99710.60;;;9.60
70533;BMP180;58088;51.186;17.130;2022-12-29T05:59:29;99706.60;;;9.62
70533;BMP180;58088;51.186;17.130;2022-12-29T06:01:56;99711.60;;;9.70
70533;BMP180;58088;51.186;17.130;2022-12-29T06:04:22;99707.20;;;9.70
70533;BMP180;58088;51.186;17.130;2022-12-29T06:06:49;99703.80;;;9.70
70533;BMP180;58088;51.186;17.130;2022-12-29T06:09:28;99707.80;;;9.80
70533;BMP180;58088;51.186;17.130;2022-12-29T06:11:54;99702.60;;;9.70
70533;BMP180;58088;51.186;17.130;2022-12-29T06:14:20;99703.20;;;9.70
70533;BMP180;58088;51.186;17.130;2022-12-29T06:16:47;99708.40;;;9.70
70533;BMP180;58088;51.186;17.130;2022-12-29T06:19:13;99707.00;;;9.70
70533;BMP180;58088;51.186;17.130;2022-12-29T06:21:40;99706.00;;;9.70
70533;BMP180;58088;51.186;17.130;2022-12-29T06:24:07;99704.80;;;9.80
70533;BMP180;58088;51.186;17.130;2022-12-29T06:26:35;99700.60;;;9.90
70533;BMP180;58088;51.186;17.130;2022-12-29T06:29:02;99697.60;;;9.90
70533;BMP180;58088;51.186;17.130;2022-12-29T06:31:29;99694.80;;;9.90
70533;BMP180;58088;51.186;17.130;2022-12-29T06:33:55;99696.60;;;9.94
70533;BMP180;58088;51.186;17.130;2022-12-29T06:36:21;99689.60;;;10.00
70533;BMP180;58088;51.186;17.130;2022-12-29T06:38:48;99685.60;;;9.96
70533;BMP180;58088;51.186;17.130;2022-12-29T06:41:14;99689.60;;;9.98
70533;BMP180;58088;51.186;17.130;2022-12-29T06:44:01;99694.20;;;10.00
70533;BMP180;58088;51.186;17.130;2022-12-29T06:46:47;99702.80;;;10.00
70533;BMP180;58088;51.186;17.130;2022-12-29T06:49:14;99709.80;;;10.00
70533;BMP180;58088;51.186;17.130;2022-12-29T06:51:40;99706.20;;;10.00
70533;BMP180;58088;51.186;17.130;2022-12-29T06:54:07;99712.20;;;10.00
70533;BMP180;58088;51.186;17.130;2022-12-29T06:56:33;99715.80;;;10.00
70533;BMP180;58088;51.186;17.130;2022-12-29T06:59:00;99721.60;;;10.00
70533;BMP180;58088;51.186;17.130;2022-12-29T07:01:27;99721.20;;;10.00
70533;BMP180;58088;51.186;17.130;2022-12-29T07:03:53;99719.40;;;10.00
70533;BMP180;58088;51.186;17.130;2022-12-29T07:06:20;99721.80;;;10.00
70533;BMP180;58088;51.186;17.130;2022-12-29T07:08:46;99721.80;;;10.00
70533;BMP180;58088;51.186;17.130;2022-12-29T07:11:12;99725.40;;;10.00
70533;BMP180;58088;51.186;17.130;2022-12-29T07:13:39;99724.00;;;10.10
70533;BMP180;58088;51.186;17.130;2022-12-29T07:16:09;99725.60;;;10.10
70533;BMP180;58088;51.186;17.130;2022-12-29T07:18:36;99719.00;;;10.10
70533;BMP180;58088;51.186;17.130;2022-12-29T07:21:02;99727.60;;;10.10
70533;BMP180;58088;51.186;17.130;2022-12-29T07:23:29;99735.20;;;10.10
70533;BMP180;58088;51.186;17.130;2022-12-29T07:26:03;99730.40;;;10.10
70533;BMP180;58088;51.186;17.130;2022-12-29T07:28:31;99730.40;;;10.10
70533;BMP180;58088;51.186;17.130;2022-12-29T07:30:59;99724.40;;;10.10
70533;BMP180;58088;51.186;17.130;2022-12-29T07:33:28;99722.20;;;10.10
70533;BMP180;58088;51.186;17.130;2022-12-29T07:35:55;99719.00;;;10.10
70533;BMP180;58088;51.186;17.130;2022-12-29T07:38:21;99727.60;;;10.20
70533;BMP180;58088;51.186;17.130;2022-12-29T07:40:47;99732.40;;;10.20
70533;BMP180;58088;51.186;17.130;2022-12-29T07:43:13;99738.00;;;10.20
70533;BMP180;58088;51.186;17.130;2022-12-29T07:45:47;99729.20;;;10.20
70533;BMP180;58088;51.186;17.130;2022-12-29T07:48:16;99726.60;;;10.20
70533;BMP180;58088;51.186;17.130;2022-12-29T07:50:42;99735.80;;;10.20
70533;BMP180;58088;51.186;17.130;2022-12-29T07:53:08;99731.60;;;10.22
70533;BMP180;58088;51.186;17.130;2022-12-29T07:55:35;99728.00;;;10.20
70533;BMP180;58088;51.186;17.130;2022-12-29T07:58:01;99730.60;;;10.28
70533;BMP180;58088;51.186;17.130;2022-12-29T08:00:27;99722.20;;;10.26
70533;BMP180;58088;51.186;17.130;2022-12-29T08:02:53;99739.00;;;10.30
70533;BMP180;58088;51.186;17.130;2022-12-29T08:05:20;99737.00;;;10.30
70533;BMP180;58088;51.186;17.130;2022-12-29T08:07:46;99734.60;;;10.30
70533;BMP180;58088;51.186;17.130;2022-12-29T08:10:14;99731.40;;;10.40
70533;BMP180;58088;51.186;17.130;2022-12-29T08:12:42;99738.20;;;10.40
70533;BMP180;58088;51.186;17.130;2022-12-29T08:15:11;99733.60;;;10.40
70533;BMP180;58088;51.186;17.130;2022-12-29T08:17:37;99742.40;;;10.50
70533;BMP180;58088;51.186;17.130;2022-12-29T08:20:05;99739.00;;;10.50
70533;BMP180;58088;51.186;17.130;2022-12-29T08:22:31;99734.40;;;10.60
70533;BMP180;58088;51.186;17.130;2022-12-29T08:24:57;99735.60;;;10.60
70533;BMP180;58088;51.186;17.130;2022-12-29T08:27:24;99735.20;;;10.60
70533;BMP180;58088;51.186;17.130;2022-12-29T08:29:51;99739.40;;;10.70
70533;BMP180;58088;51.186;17.130;2022-12-29T08:32:17;99753.60;;;10.70
70533;BMP180;58088;51.186;17.130;2022-12-29T08:34:45;99753.80;;;10.70
70533;BMP180;58088;51.186;17.130;2022-12-29T08:37:11;99753.60;;;10.70
70533;BMP180;58088;51.186;17.130;2022-12-29T08:39:38;99745.80;;;10.70
70533;BMP180;58088;51.186;17.130;2022-12-29T08:42:05;99743.60;;;10.70
70533;BMP180;58088;51.186;17.130;2022-12-29T08:44:32;99741.80;;;10.70
70533;BMP180;58088;51.186;17.130;2022-12-29T08:46:58;99733.80;;;10.80
70533;BMP180;58088;51.186;17.130;2022-12-29T08:49:24;99729.80;;;10.80
70533;BMP180;58088;51.186;17.130;2022-12-29T08:51:51;99734.40;;;10.90
70533;BMP180;58088;51.186;17.130;2022-12-29T08:54:17;99735.20;;;10.94
70533;BMP180;58088;51.186;17.130;2022-12-29T08:56:44;99735.80;;;11.00
70533;BMP180;58088;51.186;17.130;2022-12-29T08:59:12;99738.00;;;11.02
70533;BMP180;58088;51.186;17.130;2022-12-29T09:01:39;99735.80;;;11.10
70533;BMP180;58088;51.186;17.130;2022-12-29T09:04:07;99742.80;;;11.10
70533;BMP180;58088;51.186;17.130;2022-12-29T09:06:33;99741.80;;;11.20
70533;BMP180;58088;51.186;17.130;2022-12-29T09:09:00;99750.00;;;11.20
70533;BMP180;58088;51.186;17.130;2022-12-29T09:11:26;99751.40;;;11.20
70533;BMP180;58088;51.186;17.130;2022-12-29T09:13:53;99749.80;;;11.22
70533;BMP180;58088;51.186;17.130;2022-12-29T09:16:22;99746.00;;;11.30
70533;BMP180;58088;51.186;17.130;2022-12-29T09:18:49;99748.20;;;11.30
70533;BMP180;58088;51.186;17.130;2022-12-29T09:21:16;99741.00;;;11.34
70533;BMP180;58088;51.186;17.130;2022-12-29T09:23:42;99746.40;;;11.40
70533;BMP180;58088;51.186;17.130;2022-12-29T09:26:09;99749.00;;;11.40
70533;BMP180;58088;51.186;17.130;2022-12-29T09:28:35;99749.40;;;11.50
70533;BMP180;58088;51.186;17.130;2022-12-29T09:31:03;99750.60;;;11.50
70533;BMP180;58088;51.186;17.130;2022-12-29T09:33:29;99754.60;;;11.52
70533;BMP180;58088;51.186;17.130;2022-12-29T09:35:58;99754.80;;;11.60
70533;BMP180;58088;51.186;17.130;2022-12-29T09:38:26;99759.60;;;11.60
70533;BMP180;58088;51.186;17.130;2022-12-29T09:41:20;99756.00;;;11.70
70533;BMP180;58088;51.186;17.130;2022-12-29T09:46:48;99748.60;;;11.80
70533;BMP180;58088;51.186;17.130;2022-12-29T09:49:23;99749.80;;;11.88
70533;BMP180;58088;51.186;17.130;2022-12-29T09:51:54;99739.40;;;11.90
70533;BMP180;58088;51.186;17.130;2022-12-29T09:54:46;99739.80;;;11.90
70533;BMP180;58088;51.186;17.130;2022-12-29T09:59:57;99737.80;;;12.00
70533;BMP180;58088;51.186;17.130;2022-12-29T10:02:48;99729.40;;;12.00
70533;BMP180;58088;51.186;17.130;2022-12-29T10:14:01;99726.00;;;12.10
70533;BMP180;58088;51.186;17.130;2022-12-29T10:23:31;99720.00;;;12.20
70533;BMP180;58088;51.186;17.130;2022-12-29T10:25:59;99725.60;;;12.30
70533;BMP180;58088;51.186;17.130;2022-12-29T10:28:58;99715.40;;;12.36
70533;BMP180;58088;51.186;17.130;2022-12-29T10:31:39;99707.80;;;12.40
70533;BMP180;58088;51.186;17.130;2022-12-29T10:34:30;99711.40;;;12.50
70533;BMP180;58088;51.186;17.130;2022-12-29T10:39:49;99712.00;;;12.60
70533;BMP180;58088;51.186;17.130;2022-12-29T10:42:40;99705.00;;;12.60
70533;BMP180;58088;51.186;17.130;2022-12-29T10:45:15;99707.00;;;12.60
70533;BMP180;58088;51.186;17.130;2022-12-29T10:48:15;99699.00;;;12.60
70533;BMP180;58088;51.186;17.130;2022-12-29T10:50:43;99699.20;;;12.60
70533;BMP180;58088;51.186;17.130;2022-12-29T10:53:19;99697.60;;;12.60
70533;BMP180;58088;51.186;17.130;2022-12-29T10:55:47;99698.40;;;12.60
70533;BMP180;58088;51.186;17.130;2022-12-29T10:58:15;99694.00;;;12.60
70533;BMP180;58088;51.186;17.130;2022-12-29T11:00:43;99696.20;;;12.70
70533;BMP180;58088;51.186;17.130;2022-12-29T11:06:27;99689.00;;;12.80
70533;BMP180;58088;51.186;17.130;2022-12-29T11:09:01;99679.80;;;12.86
70533;BMP180;58088;51.186;17.130;2022-12-29T11:11:37;99679.00;;;12.90
70533;BMP180;58088;51.186;17.130;2022-12-29T11:14:28;99674.80;;;13.00
70533;BMP180;58088;51.186;17.130;2022-12-29T11:17:04;99675.20;;;13.06
70533;BMP180;58088;51.186;17.130;2022-12-29T11:19:33;99679.60;;;13.10
70533;BMP180;58088;51.186;17.130;2022-12-29T11:22:28;99667.40;;;13.20
70533;BMP180;58088;51.186;17.130;2022-12-29T11:25:10;99661.80;;;13.28
70533;BMP180;58088;51.186;17.130;2022-12-29T11:27:38;99667.60;;;13.30
70533;BMP180;58088;51.186;17.130;2022-12-29T11:30:24;99665.20;;;13.40
70533;BMP180;58088;51.186;17.130;2022-12-29T11:32:54;99665.60;;;13.44
70533;BMP180;58088;51.186;17.130;2022-12-29T11:35:44;99661.80;;;13.50
70533;BMP180;58088;51.186;17.130;2022-12-29T11:38:36;99663.40;;;13.52
70533;BMP180;58088;51.186;17.130;2022-12-29T11:41:04;99660.60;;;13.60
70533;BMP180;58088;51.186;17.130;2022-12-29T11:43:39;99654.40;;;13.60
70533;BMP180;58088;51.186;17.130;2022-12-29T11:46:07;99653.80;;;13.60
70533;BMP180;58088;51.186;17.130;2022-12-29T11:48:41;99650.40;;;13.60
70533;BMP180;58088;51.186;17.130;2022-12-29T11:51:10;99647.80;;;13.68
70533;BMP180;58088;51.186;17.130;2022-12-29T11:53:52;99652.00;;;13.60
70533;BMP180;58088;51.186;17.130;2022-12-29T11:56:41;99652.40;;;13.60
70533;BMP180;58088;51.186;17.130;2022-12-29T12:01:54;99649.80;;;13.70
70533;BMP180;58088;51.186;17.130;2022-12-29T12:04:36;99651.60;;;13.72
70533;BMP180;58088;51.186;17.130;2022-12-29T12:07:22;99654.00;;;13.80
70533;BMP180;58088;51.186;17.130;2022-12-29T12:09:57;99658.80;;;13.80
70533;BMP180;58088;51.186;17.130;2022-12-29T12:14:58;99649.40;;;13.80
70533;BMP180;58088;51.186;17.130;2022-12-29T12:17:55;99643.60;;;13.80
70533;BMP180;58088;51.186;17.130;2022-12-29T12:20:49;99641.40;;;13.80
70533;BMP180;58088;51.186;17.130;2022-12-29T12:32:17;99652.20;;;13.70
70533;BMP180;58088;51.186;17.130;2022-12-29T12:34:48;99650.60;;;13.70
70533;BMP180;58088;51.186;17.130;2022-12-29T12:43:47;99642.40;;;13.70
70533;BMP180;58088;51.186;17.130;2022-12-29T12:50:02;99640.00;;;13.56
70533;BMP180;58088;51.186;17.130;2022-12-29T12:53:16;99640.80;;;13.50
70533;BMP180;58088;51.186;17.130;2022-12-29T12:59:30;99639.20;;;13.50
70533;BMP180;58088;51.186;17.130;2022-12-29T13:02:14;99640.20;;;13.50
70533;BMP180;58088;51.186;17.130;2022-12-29T13:05:09;99633.60;;;13.40
70533;BMP180;58088;51.186;17.130;2022-12-29T13:13:37;99641.00;;;13.40
70533;BMP180;58088;51.186;17.130;2022-12-29T13:16:53;99640.20;;;13.40
70533;BMP180;58088;51.186;17.130;2022-12-29T13:19:52;99645.00;;;13.40
70533;BMP180;58088;51.186;17.130;2022-12-29T13:25:53;99644.40;;;13.30
70533;BMP180;58088;51.186;17.130;2022-12-29T13:37:39;99645.00;;;13.30
70533;BMP180;58088;51.186;17.130;2022-12-29T13:40:16;99649.40;;;13.30
70533;BMP180;58088;51.186;17.130;2022-12-29T13:42:45;99653.40;;;13.32
70533;BMP180;58088;51.186;17.130;2022-12-29T13:45:25;99650.20;;;13.40
70533;BMP180;58088;51.186;17.130;2022-12-29T13:48:34;99666.40;;;13.30
70533;BMP180;58088;51.186;17.130;2022-12-29T13:51:03;99668.80;;;13.30
70533;BMP180;58088;51.186;17.130;2022-12-29T13:54:05;99659.80;;;13.34
70533;BMP180;58088;51.186;17.130;2022-12-29T13:56:47;99665.00;;;13.40
70533;BMP180;58088;51.186;17.130;2022-12-29T13:59:48;99664.40;;;13.40
70533;BMP180;58088;51.186;17.130;2022-12-29T14:02:21;99666.40;;;13.40
70533;BMP180;58088;51.186;17.130;2022-12-29T14:05:28;99672.40;;;13.42
70533;BMP180;58088;51.186;17.130;2022-12-29T14:08:05;99676.80;;;13.46
70533;BMP180;58088;51.186;17.130;2022-12-29T14:10:38;99675.00;;;13.40
70533;BMP180;58088;51.186;17.130;2022-12-29T14:13:24;99669.60;;;13.40
70533;BMP180;58088;51.186;17.130;2022-12-29T14:15:57;99668.60;;;13.40
70533;BMP180;58088;51.186;17.130;2022-12-29T14:18:29;99677.60;;;13.32
70533;BMP180;58088;51.186;17.130;2022-12-29T14:21:04;99675.60;;;13.30
70533;BMP180;58088;51.186;17.130;2022-12-29T14:28:39;99684.20;;;13.34
70533;BMP180;58088;51.186;17.130;2022-12-29T14:36:56;99683.40;;;13.10
70533;BMP180;58088;51.186;17.130;2022-12-29T14:45:26;99675.80;;;12.90
70533;BMP180;58088;51.186;17.130;2022-12-29T14:47:54;99676.40;;;12.80
70533;BMP180;58088;51.186;17.130;2022-12-29T14:53:03;99681.60;;;12.76
70533;BMP180;58088;51.186;17.130;2022-12-29T14:55:46;99677.20;;;12.70
70533;BMP180;58088;51.186;17.130;2022-12-29T14:58:54;99675.00;;;12.62
70533;BMP180;58088;51.186;17.130;2022-12-29T15:01:32;99680.20;;;12.60
70533;BMP180;58088;51.186;17.130;2022-12-29T15:06:46;99676.80;;;12.42
70533;BMP180;58088;51.186;17.130;2022-12-29T15:09:34;99687.80;;;12.40
70533;BMP180;58088;51.186;17.130;2022-12-29T15:14:55;99691.60;;;12.30
70533;BMP180;58088;51.186;17.130;2022-12-29T15:17:33;99690.20;;;12.26
70533;BMP180;58088;51.186;17.130;2022-12-29T15:20:24;99691.40;;;12.20
70533;BMP180;58088;51.186;17.130;2022-12-29T15:23:09;99689.60;;;12.10
70533;BMP180;58088;51.186;17.130;2022-12-29T15:25:57;99696.20;;;12.10
70533;BMP180;58088;51.186;17.130;2022-12-29T15:28:25;99694.40;;;12.00
70533;BMP180;58088;51.186;17.130;2022-12-29T15:31:01;99700.80;;;12.00
70533;BMP180;58088;51.186;17.130;2022-12-29T15:33:28;99698.80;;;11.92
70533;BMP180;58088;51.186;17.130;2022-12-29T15:36:03;99696.40;;;11.90
70533;BMP180;58088;51.186;17.130;2022-12-29T15:38:30;99703.40;;;11.86
70533;BMP180;58088;51.186;17.130;2022-12-29T15:41:05;99698.60;;;11.76
70533;BMP180;58088;51.186;17.130;2022-12-29T15:44:18;99698.40;;;11.70
70533;BMP180;58088;51.186;17.130;2022-12-29T15:46:46;99703.60;;;11.60
70533;BMP180;58088;51.186;17.130;2022-12-29T15:49:14;99702.80;;;11.40
70533;BMP180;58088;51.186;17.130;2022-12-29T15:51:41;99702.20;;;11.40
70533;BMP180;58088;51.186;17.130;2022-12-29T15:54:21;99699.80;;;11.30
70533;BMP180;58088;51.186;17.130;2022-12-29T15:56:50;99709.20;;;11.30
70533;BMP180;58088;51.186;17.130;2022-12-29T15:59:27;99700.60;;;11.20
70533;BMP180;58088;51.186;17.130;2022-12-29T16:01:56;99695.40;;;11.20
70533;BMP180;58088;51.186;17.130;2022-12-29T16:04:30;99706.60;;;11.20
70533;BMP180;58088;51.186;17.130;2022-12-29T16:07:04;99704.60;;;11.14
70533;BMP180;58088;51.186;17.130;2022-12-29T16:09:42;99701.60;;;11.10
70533;BMP180;58088;51.186;17.130;2022-12-29T16:12:21;99702.60;;;11.10
70533;BMP180;58088;51.186;17.130;2022-12-29T16:15:14;99701.60;;;11.00
70533;BMP180;58088;51.186;17.130;2022-12-29T16:17:49;99703.00;;;11.00
70533;BMP180;58088;51.186;17.130;2022-12-29T16:20:25;99696.00;;;10.98
70533;BMP180;58088;51.186;17.130;2022-12-29T16:22:59;99698.80;;;10.90
70533;BMP180;58088;51.186;17.130;2022-12-29T16:25:32;99702.40;;;10.90
70533;BMP180;58088;51.186;17.130;2022-12-29T16:28:02;99699.80;;;10.82
70533;BMP180;58088;51.186;17.130;2022-12-29T16:30:39;99698.20;;;10.80
70533;BMP180;58088;51.186;17.130;2022-12-29T16:33:05;99704.80;;;10.80
70533;BMP180;58088;51.186;17.130;2022-12-29T16:35:46;99700.60;;;10.80